モンテレー の空港の天気 - METARとTAF

ヘネラル・マリアノ・エソコベド国際空港 ( MMMY / MTY ) - メキシコ ヌエボ・レオン州モンテレー
飛行場実況気象(Metar)
観測時間07/20 05:42 CDT (07/20 10:42 UTC)
風向・風速東 3m/s
視程10km以上
天気現象
少しの雲 雲底高度 2130m
気温24℃
湿度78%
気圧1013hPa
METARMMMY 201042Z 09005KT 10SM FEW070 24/20 A2990 RMK 8/070
過去の天気等 Google飛行場航空写真 Wunderground天気予報

過去48時間のMETAR

飛行場予報(TAF)
発表時間: 7/19 23:29 CDT (7/20 04:29 UTC)
予報対象時間: 20日1時 CDT ~ 21日7時 CDT
風向・風速南東 5m/s
視程10km以上
なし
20日6時 CDT ~ 20日10時 CDT に一時的に
視程10km以上
天気現象煙霧
全天の8割程度の雲 雲底高度 430m
20日13時 CDT から
風向・風速南東 8m/s
視程10km以上
全天の4割程度の雲 雲底高度 910m
全天の4割程度の雲 雲底高度 7620m
21日1時 CDT から
風向・風速南東 4m/s
視程10km以上
全天の4割程度の雲 雲底高度 910m
TAF MMMY 200429Z 2006/2112 14009KT P6SM SKC TX37/2021Z TN23/2012Z
TEMPO 2011/2015 6SM HZ BKN014
FM201800 14015KT P6SM SCT030 SCT250
FM210600 13007KT P6SM SCT030